Cox Corner, MA

6:34 AM EST on January 19, 2017 (GMT -0500)
Blackmount / Near Pond | | Change Station

Elev 40 ft 42.07 °N, 70.69 °W | Updated 5 minutes ago

Overcast
Overcast
33.3 °F
Feels Like 33 °F
N
0.0
Wind Variable Wind from NNW
Gusts 3.0 mph

Today
High -- | Low -- °F
--% Chance of Precip.
Yesterday
High -- | Low -- °F
Precip. -- in
Pressure 30.01 in
Visibility 7.0 miles
Clouds Mostly Cloudy 400 ft
Mostly Cloudy 1600 ft
Overcast 2800 ft
Windchill 33 °F
Dew Point 32 °F
Humidity 95%
Rainfall 0.00 in
Snow Depth Not available.
7:06 AM 4:41 PM
Waning Gibbous, 54% visible
METAR KGHG 191115Z AUTO 00000KT 7SM BKN004 BKN016 OVC028 01/00 A3001 RMK AO2
Pressure 30.01 in
Visibility 7.0 miles
Clouds Mostly Cloudy 400 ft
Mostly Cloudy 1600 ft
Overcast 2800 ft
Windchill 33 °F
Dew Point 32 °F
Humidity 95%
Rainfall 0.00 in
Snow Depth Not available.
7:06 AM 4:41 PM
Waning Gibbous, 54% visible
METAR KGHG 191115Z AUTO 00000KT 7SM BKN004 BKN016 OVC028 01/00 A3001 RMK AO2

Get Your Daily Forecast Email!

Thanks for signing up!

Be on the lookout for a verification email in your inbox.

You'll start receiving the daily forecast at 8 AM.

×

10-Day Weather Forecast

Almanac

Astronomy

Jan. 19, 2017 Rise Set
Actual Time
Civil Twilight
Nautical Twilight
Astronomical Twilight
Moon
Length of Visible Light
Length of Day
Tomorrow will be .
, % of the Moon is Illuminated

Today's Extremes

State Highs State Lows

Community

WunderPhotos

Upload Photos

1,962,540 photos uploaded!

WunderBlog® & News

Nearby

Air Quality

  Air Quality AQ Index Pollutant
Not available.

Snow Depth

Station Depth Elevation

Earthquake Activity

City Distance Mag. Time & Date
Minimum magnitude displayed is 2.5.

Coastal Water Temperatures

Place Temperature

Stations

Nearby Weather Stations

Station Location Temp. Windchill Dew Point Humidity Wind Precip. Elev Updated Type
                   

Watches & Warnings

Small Craft for Hazardous Seas Advisory
Issued: 2:17 AM EST Jan. 19, 2017 – National Weather Service

... Small Craft Advisory for hazardous seas until 10 am Friday...

The National Weather Service in Taunton has issued a Small Craft
Advisory for hazardous seas... which is in effect until 10 am EST
Friday. The Small Craft Advisory has been cancelled.

* Seas... 4 to 7 feet.

Precautionary/preparedness actions...

A Small Craft Advisory for hazardous seas means that waves are
expected to be hazardous to small craft. Mariners should avoid
shoaling areas. Long period swell can sharpen into large breaking
waves in shoaling areas. It is not unusual for waves to break
much farther from shoaling areas than is normally experienced.
Remember... breaking waves can easily capsize even larger vessels.